Time;durP1;ratioP1;P1;durP2;ratioP2;P2;SDS_P1;SDS_P2;PMS_P1;PMS_P2;Temp;Humidity;BMP_temperature;BMP_pressure;BME280_temperature;BME280_humidity;BME280_pressure;Samples;Min_cycle;Max_cycle;Signal;HPM_P1;HPM_P2
2023/10/09 00:01:46;;;;;;;4.32;1.67;;;17.90;99.90;;;;;;4184557;28;20203;-87
2023/10/09 00:03:53;;;;;;;5.93;2.10;;;17.90;99.90;;;;;;4222331;28;20173;-88
2023/10/09 00:05:54;;;;;;;6.15;2.20;;;17.80;99.90;;;;;;4185514;28;20195;-88
2023/10/09 00:07:55;;;;;;;11.15;2.08;;;17.70;99.90;;;;;;4184533;28;20178;-87
2023/10/09 00:09:57;;;;;;;6.72;2.22;;;17.70;99.90;;;;;;4203363;28;20171;-88
2023/10/09 00:12:00;;;;;;;5.80;2.33;;;17.70;99.90;;;;;;4186464;28;20175;-87
2023/10/09 00:14:05;;;;;;;7.70;2.35;;;17.70;99.90;;;;;;4187789;28;20168;-87
2023/10/09 00:16:13;;;;;;;4.20;1.83;;;17.70;99.90;;;;;;4187233;28;20187;-87
2023/10/09 00:18:14;;;;;;;7.55;2.45;;;17.70;99.90;;;;;;4185376;28;20674;-88
2023/10/09 00:20:20;;;;;;;5.05;1.88;;;17.60;99.90;;;;;;4185024;28;20171;-93
2023/10/09 00:24:25;;;;;;;5.32;2.08;;;17.50;99.90;;;;;;4219214;28;20519;-94
2023/10/09 00:26:26;;;;;;;3.88;1.88;;;17.50;99.90;;;;;;4186310;28;20203;-87
2023/10/09 00:28:27;;;;;;;4.47;1.73;;;17.50;99.90;;;;;;4201503;28;20546;-95
2023/10/09 00:30:30;;;;;;;4.90;2.08;;;17.70;99.90;;;;;;4202150;28;20179;-95
2023/10/09 00:32:33;;;;;;;3.42;1.52;;;17.80;99.90;;;;;;4185667;28;20179;-94
2023/10/09 00:34:39;;;;;;;4.57;1.95;;;17.90;99.90;;;;;;4205240;28;20619;-88
2023/10/09 00:36:50;;;;;;;3.28;1.65;;;17.80;99.90;;;;;;4186198;28;20194;-94
2023/10/09 00:38:51;;;;;;;5.40;2.42;;;17.90;99.90;;;;;;4185198;28;20199;-88
2023/10/09 00:41:21;;;;;;;6.32;2.83;;;17.80;99.90;;;;;;4185102;28;20732;-94
2023/10/09 00:43:14;;;;;;;4.45;1.65;;;17.80;99.90;;;;;;4217594;28;20209;-88
2023/10/09 00:45:25;;;;;;;5.00;2.15;;;17.80;99.90;;;;;;4184073;28;20231;-94
2023/10/09 00:47:34;;;;;;;5.07;2.30;;;17.70;99.90;;;;;;4200694;28;20658;-88
2023/10/09 00:49:35;;;;;;;4.03;1.90;;;17.80;99.90;;;;;;4184831;28;20200;-89
2023/10/09 00:51:38;;;;;;;5.25;2.45;;;17.80;99.90;;;;;;4184508;28;20272;-87
2023/10/09 00:53:39;;;;;;;4.22;1.73;;;17.70;99.90;;;;;;4202632;28;20167;-88
2023/10/09 00:57:59;;;;;;;3.55;2.00;;;17.60;99.90;;;;;;4203315;28;20171;-87
2023/10/09 01:00:00;;;;;;;3.63;1.92;;;17.60;99.90;;;;;;4202772;28;20190;-88
2023/10/09 01:02:05;;;;;;;6.72;2.35;;;17.60;99.90;;;;;;4201653;28;20257;-95
2023/10/09 01:04:17;;;;;;;5.60;1.90;;;17.60;99.90;;;;;;4188927;28;20175;-88
2023/10/09 01:06:21;;;;;;;4.70;2.35;;;17.70;99.90;;;;;;4190783;28;20190;-88
2023/10/09 01:10:52;;;;;;;6.93;2.28;;;17.60;99.90;;;;;;4203915;28;20314;-95
2023/10/09 01:12:55;;;;;;;7.55;2.50;;;17.60;99.90;;;;;;4183670;28;20217;-90
2023/10/09 01:14:56;;;;;;;3.80;1.63;;;17.50;99.90;;;;;;4201206;28;20174;-94
2023/10/09 01:16:57;;;;;;;8.90;2.33;;;17.50;99.90;;;;;;4202908;28;20187;-95
2023/10/09 01:19:06;;;;;;;5.82;1.67;;;17.50;99.90;;;;;;4184929;28;20215;-88
2023/10/09 01:21:07;;;;;;;9.65;2.78;;;17.40;99.90;;;;;;4183421;28;20168;-91
2023/10/09 01:23:11;;;;;;;4.00;2.05;;;17.40;99.90;;;;;;4183589;28;20175;-93
2023/10/09 01:25:12;;;;;;;4.38;1.95;;;17.40;99.90;;;;;;4201261;28;20167;-88
2023/10/09 01:27:16;;;;;;;6.55;2.67;;;17.40;99.90;;;;;;4184862;28;20194;-87
2023/10/09 01:29:22;;;;;;;10.30;2.25;;;17.40;99.90;;;;;;4185574;28;20215;-88
2023/10/09 01:31:26;;;;;;;5.15;2.35;;;17.50;99.90;;;;;;4184845;28;20175;-88
2023/10/09 01:33:28;;;;;;;5.30;2.33;;;17.50;99.90;;;;;;4201262;28;20203;-88
2023/10/09 01:35:33;;;;;;;5.68;1.90;;;17.50;99.90;;;;;;4201369;28;20183;-87
2023/10/09 01:37:36;;;;;;;4.75;2.33;;;17.50;99.90;;;;;;4202135;28;20178;-87
2023/10/09 01:39:41;;;;;;;6.38;1.92;;;17.60;99.90;;;;;;4185573;28;20257;-87
2023/10/09 01:41:46;;;;;;;5.28;2.55;;;17.60;99.90;;;;;;4185789;28;20167;-96
2023/10/09 01:43:51;;;;;;;5.82;2.65;;;17.60;99.90;;;;;;4200374;28;20527;-88
2023/10/09 01:45:52;;;;;;;4.32;1.85;;;17.50;99.90;;;;;;4200104;28;20194;-88
2023/10/09 01:47:56;;;;;;;4.78;1.95;;;17.50;99.90;;;;;;4183625;28;20663;-96
2023/10/09 01:49:57;;;;;;;2.92;1.70;;;17.60;99.90;;;;;;4183639;28;20536;-87
2023/10/09 01:52:01;;;;;;;9.20;2.42;;;17.50;99.90;;;;;;4184745;28;20718;-88
2023/10/09 01:54:03;;;;;;;7.95;2.78;;;17.50;99.90;;;;;;4184780;28;20176;-88
2023/10/09 01:56:15;;;;;;;7.50;2.13;;;17.40;99.90;;;;;;4183954;28;20187;-88
2023/10/09 02:00:24;;;;;;;6.75;1.88;;;17.30;99.90;;;;;;4200977;28;20179;-88
2023/10/09 02:02:25;;;;;;;6.72;2.40;;;17.30;99.90;;;;;;4201543;28;20228;-95
2023/10/09 02:04:26;;;;;;;4.03;2.20;;;17.40;99.90;;;;;;4203033;28;20245;-88
2023/10/09 02:06:31;;;;;;;3.92;2.08;;;17.40;99.90;;;;;;4200412;28;20186;-94
2023/10/09 02:08:35;;;;;;;5.78;2.40;;;17.20;99.90;;;;;;4183564;28;20172;-88
2023/10/09 02:10:37;;;;;;;4.30;2.20;;;17.20;99.90;;;;;;4182840;28;20179;-88
2023/10/09 02:12:40;;;;;;;5.20;1.92;;;17.20;99.90;;;;;;4201177;28;20614;-89
2023/10/09 02:14:41;;;;;;;8.63;2.40;;;17.10;99.90;;;;;;4184188;28;20595;-95
2023/10/09 02:16:42;;;;;;;6.50;2.03;;;17.20;99.90;;;;;;4199430;28;20293;-90
2023/10/09 02:18:52;;;;;;;4.90;1.77;;;17.20;99.90;;;;;;4199084;28;20623;-87
2023/10/09 02:23:00;;;;;;;4.97;1.92;;;17.10;99.90;;;;;;4199184;28;20185;-88
2023/10/09 02:25:05;;;;;;;4.60;2.30;;;17.20;99.90;;;;;;4182158;28;20168;-88
2023/10/09 02:27:08;;;;;;;4.53;1.70;;;17.30;99.90;;;;;;4183055;28;20179;-87
2023/10/09 02:31:21;;;;;;;6.10;2.03;;;17.30;99.90;;;;;;4199394;28;20535;-95
2023/10/09 02:33:30;;;;;;;4.47;2.00;;;17.20;99.90;;;;;;4198910;28;20292;-92
2023/10/09 02:35:42;;;;;;;6.47;1.90;;;17.20;99.90;;;;;;4183620;28;20218;-94
2023/10/09 02:37:45;;;;;;;6.45;2.33;;;17.20;99.90;;;;;;4199425;28;20253;-88
2023/10/09 02:39:48;;;;;;;4.72;2.15;;;17.10;99.90;;;;;;4182256;28;20245;-88
2023/10/09 02:42:01;;;;;;;4.63;2.08;;;17.10;99.90;;;;;;4182657;28;20568;-88
2023/10/09 02:44:10;;;;;;;6.53;2.45;;;17.20;99.90;;;;;;4199088;28;20181;-92
2023/10/09 02:46:19;;;;;;;5.18;2.38;;;17.20;99.90;;;;;;4182335;28;20217;-91
2023/10/09 02:48:20;;;;;;;6.63;2.40;;;17.20;99.90;;;;;;4166188;28;20168;-95
2023/10/09 02:50:22;;;;;;;6.40;2.13;;;17.10;99.90;;;;;;4182448;28;20703;-96
2023/10/09 02:52:32;;;;;;;7.18;2.17;;;17.20;99.90;;;;;;4181698;28;20207;-89
2023/10/09 02:54:41;;;;;;;4.25;2.15;;;17.10;99.90;;;;;;4182660;28;20650;-91
2023/10/09 02:56:43;;;;;;;4.53;2.53;;;17.10;99.90;;;;;;4182271;28;20218;-88
2023/10/09 02:58:44;;;;;;;4.35;2.10;;;17.00;99.90;;;;;;4184821;28;20195;-88
2023/10/09 03:00:44;;;;;;;5.78;2.22;;;17.10;99.90;;;;;;4184037;28;20171;-88
2023/10/09 03:02:49;;;;;;;7.65;3.08;;;17.10;99.90;;;;;;4185084;28;20533;-88
2023/10/09 03:04:50;;;;;;;5.90;2.05;;;17.20;99.90;;;;;;4201633;28;20170;-88
2023/10/09 03:06:51;;;;;;;6.53;2.28;;;17.30;99.90;;;;;;4202447;28;20554;-91
2023/10/09 03:08:54;;;;;;;4.88;2.03;;;17.20;99.90;;;;;;4184036;28;20574;-88
2023/10/09 03:10:56;;;;;;;3.47;1.70;;;17.10;99.90;;;;;;4201695;28;20179;-93
2023/10/09 03:13:01;;;;;;;7.22;1.95;;;17.10;99.90;;;;;;4199870;28;20665;-87
2023/10/09 03:15:05;;;;;;;3.83;2.05;;;17.20;99.90;;;;;;4200345;28;20216;-88
2023/10/09 03:17:11;;;;;;;5.38;2.25;;;17.20;99.90;;;;;;4218840;28;20713;-88
2023/10/09 03:19:13;;;;;;;6.10;2.35;;;17.20;99.90;;;;;;4169694;28;20219;-87
2023/10/09 03:21:14;;;;;;;4.78;2.20;;;17.20;99.90;;;;;;4184502;28;20222;-88
2023/10/09 03:23:15;;;;;;;6.85;2.25;;;17.10;99.90;;;;;;4182596;28;20635;-89
2023/10/09 03:25:19;;;;;;;4.93;2.25;;;17.00;99.90;;;;;;4182569;28;20163;-88
2023/10/09 03:27:20;;;;;;;4.90;1.95;;;17.00;99.90;;;;;;4218719;28;20209;-96
2023/10/09 03:29:21;;;;;;;4.50;2.20;;;16.90;99.90;;;;;;4220611;28;20167;-89
2023/10/09 03:31:22;;;;;;;4.82;2.30;;;17.00;99.90;;;;;;4185155;28;20183;-88
2023/10/09 03:33:23;;;;;;;4.15;2.20;;;17.00;99.90;;;;;;4184746;28;20182;-94
2023/10/09 03:35:24;;;;;;;4.50;2.70;;;17.00;99.90;;;;;;4204873;28;20627;-88
2023/10/09 03:37:34;;;;;;;4.97;2.00;;;17.00;99.90;;;;;;4187810;28;20183;-94
2023/10/09 03:39:41;;;;;;;4.30;2.03;;;16.90;99.90;;;;;;4185193;28;20637;-87
2023/10/09 03:41:42;;;;;;;4.80;2.13;;;16.90;99.90;;;;;;4186421;28;20172;-87
2023/10/09 03:43:45;;;;;;;7.40;2.58;;;16.80;99.90;;;;;;4186384;28;20176;-87
2023/10/09 03:45:52;;;;;;;6.90;2.20;;;16.70;99.90;;;;;;4185057;28;20255;-87
2023/10/09 03:48:02;;;;;;;5.38;2.20;;;16.60;99.90;;;;;;4186911;28;20233;-88
2023/10/09 03:50:20;;;;;;;5.65;2.20;;;16.70;99.90;;;;;;4200862;28;20242;-88
2023/10/09 03:52:27;;;;;;;6.88;2.05;;;16.50;99.90;;;;;;4185749;28;20636;-95
2023/10/09 03:54:29;;;;;;;4.55;2.13;;;16.60;99.90;;;;;;4201861;28;20229;-88
2023/10/09 03:56:32;;;;;;;8.65;3.17;;;16.60;99.90;;;;;;4185858;28;20239;-88
2023/10/09 03:58:45;;;;;;;6.22;2.70;;;16.50;99.90;;;;;;4203345;28;20230;-94
2023/10/09 04:00:46;;;;;;;6.57;2.15;;;16.40;99.90;;;;;;4188181;28;20232;-94
2023/10/09 04:02:49;;;;;;;7.80;2.40;;;16.50;99.90;;;;;;4187787;28;20543;-89
2023/10/09 04:04:50;;;;;;;5.75;2.58;;;16.50;99.90;;;;;;4206063;28;20171;-88
2023/10/09 04:06:54;;;;;;;5.05;2.45;;;16.60;99.90;;;;;;4215582;28;20198;-87
2023/10/09 04:08:55;;;;;;;6.28;2.50;;;16.60;99.90;;;;;;4212441;28;20175;-88
2023/10/09 04:11:04;;;;;;;6.50;2.28;;;16.60;99.90;;;;;;4202677;28;20171;-93
2023/10/09 04:13:10;;;;;;;5.63;2.70;;;16.60;99.90;;;;;;4187931;28;20245;-88
2023/10/09 04:15:14;;;;;;;6.35;2.40;;;16.50;99.90;;;;;;4188532;28;20176;-87
2023/10/09 04:19:25;;;;;;;5.82;2.72;;;16.50;99.90;;;;;;4202361;28;20229;-88
2023/10/09 04:21:36;;;;;;;9.35;2.42;;;16.50;99.90;;;;;;4184694;28;20159;-87
2023/10/09 04:24:22;;;;;;;9.10;2.67;;;16.40;99.90;;;;;;4201101;28;20642;-88
2023/10/09 04:25:59;;;;;;;5.72;2.53;;;16.40;99.90;;;;;;4187997;28;20190;-88
2023/10/09 04:28:18;;;;;;;6.75;2.80;;;16.40;99.90;;;;;;4184571;28;20184;-88
2023/10/09 04:30:19;;;;;;;9.70;3.22;;;16.40;99.90;;;;;;4201979;28;20174;-92
2023/10/09 04:32:24;;;;;;;5.40;2.50;;;16.30;99.90;;;;;;4201636;28;20175;-87
2023/10/09 04:34:34;;;;;;;8.70;3.17;;;16.40;99.90;;;;;;4185409;28;20239;-95
2023/10/09 04:36:46;;;;;;;10.70;2.58;;;16.30;99.90;;;;;;4200808;28;20218;-94
2023/10/09 04:41:06;;;;;;;7.65;3.00;;;16.40;99.90;;;;;;4201509;28;20265;-89
2023/10/09 04:43:09;;;;;;;6.05;2.60;;;16.40;99.90;;;;;;4185357;28;20197;-90
2023/10/09 04:49:27;;;;;;;8.05;3.10;;;16.50;99.90;;;;;;4218317;28;20622;-87
2023/10/09 04:51:35;;;;;;;5.88;2.70;;;16.40;99.90;;;;;;4184315;28;20205;-87
2023/10/09 04:53:43;;;;;;;6.85;2.33;;;16.50;99.90;;;;;;4185008;28;20179;-88
2023/10/09 04:55:53;;;;;;;6.25;2.97;;;16.50;99.90;;;;;;4202824;28;20186;-88
2023/10/09 04:58:23;;;;;;;7.13;2.72;;;16.40;99.90;;;;;;4201012;28;20187;-94
2023/10/09 05:02:36;;;;;;;11.68;3.13;;;16.40;99.90;;;;;;4202021;28;20550;-88
2023/10/09 05:06:54;;;;;;;13.50;3.10;;;16.30;99.90;;;;;;4201012;28;20226;-92
2023/10/09 05:09:09;;;;;;;9.00;2.33;;;16.30;99.90;;;;;;4205534;28;20171;-87
2023/10/09 05:11:34;;;;;;;6.25;2.97;;;16.30;99.90;;;;;;4205009;28;20175;-95
2023/10/09 05:15:46;;;;;;;5.75;3.25;;;16.30;99.90;;;;;;4204102;28;20191;-87
2023/10/09 05:17:56;;;;;;;8.07;2.67;;;16.40;99.90;;;;;;4190036;28;20171;-87
2023/10/09 05:20:55;;;;;;;6.32;2.95;;;16.40;99.90;;;;;;4204190;28;20231;-87
2023/10/09 05:22:29;;;;;;;8.52;3.45;;;16.30;99.90;;;;;;4205686;28;20167;-87
2023/10/09 05:24:43;;;;;;;5.40;2.80;;;16.40;99.90;;;;;;4204801;28;20825;-96
2023/10/09 05:28:52;;;;;;;4.43;2.63;;;16.40;99.90;;;;;;4203775;28;20292;-87
2023/10/09 05:31:09;;;;;;;15.70;3.33;;;16.30;99.90;;;;;;4200822;28;20654;-92
2023/10/09 05:33:28;;;;;;;4.95;2.50;;;16.30;99.90;;;;;;4188824;28;20180;-93
2023/10/09 05:35:59;;;;;;;5.28;2.72;;;16.20;99.90;;;;;;4187731;28;20176;-88
2023/10/09 05:38:04;;;;;;;5.13;2.88;;;16.10;99.90;;;;;;4202790;28;20196;-88
2023/10/09 05:42:28;;;;;;;6.38;3.00;;;16.10;99.90;;;;;;4202667;28;20183;-87
2023/10/09 05:47:22;;;;;;;11.70;3.10;;;16.00;99.90;;;;;;4203120;28;20745;-88
2023/10/09 05:49:19;;;;;;;5.72;2.53;;;16.00;99.90;;;;;;4222724;28;20166;-88
2023/10/09 06:08:06;;;;;;;8.88;3.50;;;15.90;99.90;;;;;;4197788;28;20265;-87
2023/10/09 06:10:37;;;;;;;5.75;3.20;;;16.00;99.90;;;;;;4203113;28;20170;-87
2023/10/09 06:16:43;;;;;;;5.90;2.90;;;16.00;99.90;;;;;;4204802;28;20758;-95
2023/10/09 06:18:53;;;;;;;11.20;3.22;;;16.00;99.90;;;;;;4186974;28;20206;-87
2023/10/09 06:21:09;;;;;;;6.50;2.50;;;16.10;99.90;;;;;;4187568;28;20179;-88
2023/10/09 06:23:16;;;;;;;6.45;3.15;;;16.10;99.90;;;;;;4186045;28;20175;-94
2023/10/09 06:25:17;;;;;;;6.22;3.40;;;16.20;99.90;;;;;;4186933;28;20175;-94
2023/10/09 06:32:16;;;;;;;5.57;2.92;;;16.20;99.90;;;;;;4200470;28;20230;-87
2023/10/09 06:34:18;;;;;;;9.38;3.03;;;16.10;99.90;;;;;;4184665;28;20179;-88
2023/10/09 06:36:18;;;;;;;6.32;2.70;;;16.10;99.90;;;;;;4222307;28;20182;-93
2023/10/09 06:38:23;;;;;;;7.30;3.10;;;16.10;99.90;;;;;;4185072;28;20206;-87
2023/10/09 06:42:44;;;;;;;6.68;3.15;;;16.10;99.90;;;;;;4222303;28;20252;-87
2023/10/09 06:44:54;;;;;;;8.63;3.20;;;16.10;99.90;;;;;;4189151;28;20164;-93
2023/10/09 06:46:57;;;;;;;6.80;3.40;;;16.20;99.90;;;;;;4187262;28;20191;-87
2023/10/09 06:48:59;;;;;;;8.85;3.85;;;16.10;99.90;;;;;;4181841;28;20211;-87
2023/10/09 06:55:50;;;;;;;9.20;3.63;;;16.40;99.90;;;;;;4203502;28;20202;-87
2023/10/09 06:57:54;;;;;;;9.93;3.08;;;16.40;99.90;;;;;;4224613;28;20214;-88
2023/10/09 07:02:27;;;;;;;6.72;3.70;;;16.50;99.90;;;;;;4208355;28;20242;-88
2023/10/09 07:08:57;;;;;;;4.75;2.97;;;16.50;99.90;;;;;;4220431;28;20174;-89
2023/10/09 07:13:24;;;;;;;8.43;3.15;;;16.70;99.90;;;;;;4220294;28;20171;-89
2023/10/09 07:18:18;;;;;;;7.55;3.13;;;16.80;99.90;;;;;;4186223;28;20194;-88
2023/10/09 07:20:37;;;;;;;7.25;3.63;;;16.80;99.90;;;;;;4177421;28;20195;-88
2023/10/09 07:23:13;;;;;;;7.25;3.50;;;16.90;99.90;;;;;;4186686;28;20168;-87
2023/10/09 07:25:14;;;;;;;7.30;3.42;;;16.90;99.90;;;;;;4219873;28;20178;-94
2023/10/09 07:27:41;;;;;;;8.80;3.47;;;16.90;99.90;;;;;;4202947;28;20167;-87
2023/10/09 07:29:47;;;;;;;7.15;3.22;;;16.90;99.90;;;;;;4220234;28;20247;-87
2023/10/09 07:32:12;;;;;;;11.63;3.95;;;16.80;99.90;;;;;;4203036;28;20218;-87
2023/10/09 07:35:34;;;;;;;11.80;4.07;;;16.90;99.90;;;;;;4186488;28;20194;-94
2023/10/09 07:36:47;;;;;;;9.65;3.67;;;16.90;99.90;;;;;;4192852;28;20202;-94
2023/10/09 07:38:55;;;;;;;15.18;4.10;;;17.00;99.90;;;;;;4201035;28;20221;-88
2023/10/09 07:43:05;;;;;;;11.30;4.20;;;17.20;99.90;;;;;;4202254;28;20170;-94
2023/10/09 07:46:29;;;;;;;7.95;3.65;;;17.40;99.90;;;;;;4206479;28;20578;-88
2023/10/09 07:47:45;;;;;;;6.25;3.72;;;17.60;99.90;;;;;;4199976;28;20175;-94
2023/10/09 07:49:53;;;;;;;9.98;4.35;;;17.80;99.90;;;;;;4201090;28;20192;-88
2023/10/09 07:51:54;;;;;;;11.60;4.85;;;18.20;99.90;;;;;;4183763;28;20600;-88
2023/10/09 07:54:08;;;;;;;8.50;3.63;;;18.70;99.90;;;;;;4200131;28;20631;-88
2023/10/09 07:56:13;;;;;;;12.15;4.20;;;19.20;99.90;;;;;;4200742;28;20233;-88
2023/10/09 07:58:14;;;;;;;7.35;3.53;;;19.40;99.90;;;;;;4184938;28;20562;-87
2023/10/09 08:02:34;;;;;;;7.05;3.58;;;19.80;99.90;;;;;;4201928;28;20217;-88
2023/10/09 08:04:39;;;;;;;8.15;3.65;;;19.90;99.90;;;;;;4185476;28;20167;-88
2023/10/09 08:06:45;;;;;;;8.27;3.42;;;19.70;99.90;;;;;;4204735;28;20252;-95
2023/10/09 08:13:49;;;;;;;7.63;3.30;;;19.30;99.90;;;;;;4202943;28;20182;-93
2023/10/09 08:15:56;;;;;;;10.20;4.43;;;19.00;99.90;;;;;;4218360;28;20201;-95
2023/10/09 08:18:27;;;;;;;9.40;4.28;;;18.90;99.90;;;;;;4203631;28;20167;-90
2023/10/09 08:20:25;;;;;;;7.28;3.38;;;18.80;99.90;;;;;;4202165;28;20190;-87
2023/10/09 08:24:52;;;;;;;12.77;4.70;;;18.90;99.90;;;;;;4205605;28;20202;-93
2023/10/09 08:27:28;;;;;;;13.02;3.60;;;18.70;99.90;;;;;;4206639;28;20728;-92
2023/10/09 08:29:18;;;;;;;7.13;3.65;;;18.80;99.90;;;;;;4205723;28;20269;-88
2023/10/09 08:31:34;;;;;;;6.60;3.25;;;18.80;99.90;;;;;;4205560;28;20167;-95
2023/10/09 08:35:51;;;;;;;8.27;3.63;;;19.00;99.90;;;;;;4206816;28;20233;-88
2023/10/09 08:37:52;;;;;;;5.65;3.35;;;19.10;99.90;;;;;;4205252;28;20269;-95
2023/10/09 08:39:54;;;;;;;12.43;3.97;;;19.30;99.90;;;;;;4185701;28;20566;-88
2023/10/09 08:41:58;;;;;;;7.72;3.75;;;19.30;99.90;;;;;;4184487;28;20176;-87
2023/10/09 08:44:00;;;;;;;5.05;3.20;;;19.20;99.90;;;;;;4204483;28;20169;-94
2023/10/09 08:46:01;;;;;;;9.23;3.63;;;19.20;99.90;;;;;;4203524;28;20191;-88
2023/10/09 08:48:05;;;;;;;8.95;4.25;;;18.90;99.90;;;;;;4202592;28;20770;-88
2023/10/09 08:50:13;;;;;;;13.65;3.60;;;18.90;99.90;;;;;;4206117;28;20197;-89
2023/10/09 08:52:13;;;;;;;8.43;3.88;;;18.90;99.90;;;;;;4187008;28;20179;-88
2023/10/09 08:54:14;;;;;;;10.35;4.43;;;19.00;99.90;;;;;;4203178;28;20182;-87
2023/10/09 08:56:24;;;;;;;11.93;4.05;;;19.10;99.90;;;;;;4184829;28;20187;-88
2023/10/09 08:58:26;;;;;;;11.65;3.85;;;19.20;99.90;;;;;;4201101;28;20558;-88
2023/10/09 09:00:33;;;;;;;9.05;3.58;;;19.30;99.90;;;;;;4188493;28;20171;-90
2023/10/09 09:02:34;;;;;;;9.27;3.53;;;19.50;99.90;;;;;;4188854;28;20242;-89
2023/10/09 09:04:38;;;;;;;8.55;4.05;;;19.50;99.90;;;;;;4187016;28;20210;-88
2023/10/09 09:06:41;;;;;;;12.95;4.95;;;19.60;99.90;;;;;;4204487;28;20245;-88
2023/10/09 09:08:44;;;;;;;8.60;4.28;;;19.70;99.90;;;;;;4185330;28;20643;-90
2023/10/09 09:10:47;;;;;;;10.45;4.07;;;20.00;99.90;;;;;;4186802;28;20206;-88
2023/10/09 09:13:00;;;;;;;12.88;4.18;;;19.90;99.90;;;;;;4185606;28;20168;-92
2023/10/09 09:15:02;;;;;;;10.77;3.95;;;20.10;99.90;;;;;;4188778;28;20659;-88
2023/10/09 09:17:05;;;;;;;10.95;4.65;;;20.00;99.90;;;;;;4204355;28;20297;-94
2023/10/09 09:21:27;;;;;;;8.40;4.32;;;20.00;99.90;;;;;;4208391;28;20655;-95
2023/10/09 09:23:28;;;;;;;9.07;4.25;;;20.00;99.90;;;;;;4222460;28;20526;-94
2023/10/09 09:25:59;;;;;;;9.48;4.13;;;20.00;99.90;;;;;;4189887;28;21520;-88
2023/10/09 09:28:09;;;;;;;11.25;4.68;;;20.10;99.90;;;;;;4186736;28;20223;-88
2023/10/09 09:30:35;;;;;;;9.20;4.13;;;20.10;99.90;;;;;;4185180;28;20163;-89
2023/10/09 09:32:36;;;;;;;11.52;3.90;;;20.20;99.90;;;;;;4187487;28;20260;-87
2023/10/09 09:34:49;;;;;;;13.52;5.00;;;20.20;99.90;;;;;;4185641;28;20199;-87
2023/10/09 09:36:55;;;;;;;7.03;3.63;;;20.20;99.90;;;;;;4220104;28;20202;-89
2023/10/09 09:39:18;;;;;;;16.45;4.70;;;20.20;99.90;;;;;;4206580;28;20222;-88
2023/10/09 09:41:26;;;;;;;11.10;5.13;;;20.30;99.90;;;;;;4203461;28;20178;-88
2023/10/09 09:43:30;;;;;;;7.40;4.15;;;20.30;99.90;;;;;;4221488;28;20184;-90
2023/10/09 09:45:38;;;;;;;9.88;4.15;;;20.40;99.90;;;;;;4202768;28;20205;-94
2023/10/09 09:47:46;;;;;;;10.85;4.55;;;20.40;99.90;;;;;;4223089;28;20165;-88
2023/10/09 09:50:13;;;;;;;9.98;3.88;;;20.50;99.90;;;;;;4206277;28;20205;-88
2023/10/09 09:52:18;;;;;;;7.78;3.40;;;20.60;99.90;;;;;;4220712;28;20170;-88
2023/10/09 09:54:22;;;;;;;11.35;4.03;;;20.80;99.90;;;;;;4203147;28;20706;-87
2023/10/09 09:56:25;;;;;;;8.82;4.00;;;20.80;99.90;;;;;;4205783;28;20190;-94
2023/10/09 09:58:43;;;;;;;10.48;4.25;;;20.90;99.90;;;;;;4223455;28;20162;-87
2023/10/09 10:00:44;;;;;;;9.82;3.90;;;21.10;99.90;;;;;;4189468;28;20179;-92
2023/10/09 10:02:46;;;;;;;11.38;4.18;;;21.00;99.90;;;;;;4207453;28;20178;-88
2023/10/09 10:04:50;;;;;;;11.68;4.18;;;21.00;99.90;;;;;;4200695;28;20170;-88
2023/10/09 10:06:54;;;;;;;12.73;4.60;;;21.10;99.90;;;;;;4205714;28;20250;-90
2023/10/09 10:08:55;;;;;;;10.30;3.90;;;20.90;99.90;;;;;;4206541;28;20538;-88
2023/10/09 10:11:05;;;;;;;15.10;4.20;;;20.90;99.90;;;;;;4196926;28;20180;-87
2023/10/09 10:13:06;;;;;;;8.98;4.13;;;20.90;99.90;;;;;;4211596;28;20179;-88
2023/10/09 10:15:14;;;;;;;7.65;3.80;;;20.90;99.90;;;;;;4204578;28;20339;-88
2023/10/09 10:17:18;;;;;;;8.23;3.63;;;20.90;99.90;;;;;;4204794;28;20170;-87
2023/10/09 10:23:34;;;;;;;9.95;3.83;;;20.90;99.90;;;;;;4204156;28;20264;-95
2023/10/09 10:25:41;;;;;;;14.57;4.55;;;21.00;99.90;;;;;;4203289;28;20186;-88
2023/10/09 10:27:53;;;;;;;8.80;4.13;;;21.20;99.90;;;;;;4187417;28;20194;-92
2023/10/09 10:30:18;;;;;;;7.22;3.92;;;21.50;99.90;;;;;;4217457;28;20166;-87
2023/10/09 10:32:23;;;;;;;8.63;4.05;;;21.40;99.90;;;;;;4220736;28;20174;-96
2023/10/09 10:34:25;;;;;;;11.38;4.15;;;21.50;99.90;;;;;;4187316;28;20186;-88
2023/10/09 10:36:29;;;;;;;8.20;4.00;;;21.40;99.90;;;;;;4204636;28;20614;-88
2023/10/09 10:38:36;;;;;;;10.93;3.40;;;21.50;99.90;;;;;;4189517;28;20170;-93
2023/10/09 10:40:46;;;;;;;9.55;3.97;;;21.70;99.90;;;;;;4204974;28;20249;-88
2023/10/09 10:43:09;;;;;;;7.40;3.63;;;21.70;99.90;;;;;;4203358;28;20170;-88
2023/10/09 10:45:38;;;;;;;8.68;4.00;;;21.70;99.90;;;;;;4202013;28;20189;-89
2023/10/09 10:47:40;;;;;;;12.07;4.45;;;21.80;99.90;;;;;;4189161;28;20187;-88
2023/10/09 10:49:44;;;;;;;5.20;3.13;;;21.90;99.90;;;;;;4204838;28;20171;-87
2023/10/09 10:51:49;;;;;;;7.93;3.60;;;21.90;99.90;;;;;;4186452;28;20170;-88
2023/10/09 10:54:26;;;;;;;8.43;3.85;;;22.10;99.90;;;;;;4189779;28;20183;-88
2023/10/09 10:58:23;;;;;;;8.35;3.95;;;22.20;99.90;;;;;;4220747;28;20174;-96
2023/10/09 11:03:16;;;;;;;8.90;3.70;;;22.10;99.90;;;;;;4184617;28;20167;-87
2023/10/09 11:05:25;;;;;;;6.82;3.47;;;22.00;99.90;;;;;;4188403;28;20183;-88
2023/10/09 11:07:27;;;;;;;15.55;3.97;;;22.20;99.90;;;;;;4170369;28;20179;-93
2023/10/09 11:09:35;;;;;;;7.13;4.00;;;22.20;99.90;;;;;;4186677;28;20195;-92
2023/10/09 11:11:46;;;;;;;11.00;4.22;;;22.40;99.90;;;;;;4202569;28;20166;-87
2023/10/09 11:14:05;;;;;;;9.63;3.70;;;22.30;99.90;;;;;;4186868;28;20179;-88
2023/10/09 11:16:15;;;;;;;9.93;3.38;;;22.20;99.90;;;;;;4221460;28;20624;-87
2023/10/09 11:18:20;;;;;;;9.25;4.20;;;22.00;99.90;;;;;;4199710;28;20174;-87
2023/10/09 11:20:26;;;;;;;13.88;3.60;;;21.90;99.90;;;;;;4181893;28;20187;-88
2023/10/09 11:22:28;;;;;;;9.38;3.72;;;21.70;99.90;;;;;;4185333;28;20172;-88
2023/10/09 11:24:35;;;;;;;10.55;3.55;;;22.00;99.90;;;;;;4185667;28;20179;-95
2023/10/09 11:26:40;;;;;;;10.50;3.67;;;22.20;99.90;;;;;;4199641;28;20186;-87
2023/10/09 11:28:56;;;;;;;6.72;3.42;;;22.40;99.90;;;;;;4184971;28;20288;-88
2023/10/09 11:31:16;;;;;;;7.85;3.72;;;22.60;99.90;;;;;;4200656;28;20220;-89
2023/10/09 11:33:17;;;;;;;7.05;3.50;;;22.50;99.90;;;;;;4199402;28;20254;-87
2023/10/09 11:35:27;;;;;;;10.38;3.53;;;22.60;99.90;;;;;;4182407;28;20178;-88
2023/10/09 11:39:32;;;;;;;7.03;3.70;;;23.00;99.90;;;;;;4198466;28;20206;-86
2023/10/09 11:41:41;;;;;;;5.65;2.92;;;23.10;99.90;;;;;;4182673;28;20202;-87
2023/10/09 11:43:54;;;;;;;8.68;3.28;;;23.40;99.90;;;;;;4183956;28;20596;-87
2023/10/09 11:46:23;;;;;;;9.95;3.70;;;23.40;99.90;;;;;;4182638;28;20199;-88
2023/10/09 11:48:33;;;;;;;11.52;3.95;;;23.60;99.90;;;;;;4182203;28;20170;-91
2023/10/09 11:50:43;;;;;;;7.97;3.80;;;23.90;99.90;;;;;;4181003;28;20174;-90
2023/10/09 11:55:36;;;;;;;6.85;3.25;;;23.70;99.90;;;;;;4151648;28;20197;-94
2023/10/09 11:57:38;;;;;;;7.38;3.70;;;23.60;99.90;;;;;;4164471;28;20632;-87
2023/10/09 11:59:39;;;;;;;5.53;3.35;;;23.60;99.90;;;;;;4186080;28;20691;-87
2023/10/09 12:01:42;;;;;;;9.18;3.72;;;23.70;99.90;;;;;;4202365;28;20170;-88
2023/10/09 12:03:49;;;;;;;5.55;2.80;;;23.70;99.90;;;;;;4184982;28;20187;-91
2023/10/09 12:05:50;;;;;;;7.93;3.55;;;23.90;99.90;;;;;;4187010;28;20192;-88
2023/10/09 12:07:54;;;;;;;6.05;2.88;;;24.10;99.90;;;;;;4202864;28;20183;-87
2023/10/09 12:09:56;;;;;;;10.63;4.38;;;24.00;99.90;;;;;;4203529;28;20166;-88
2023/10/09 12:12:00;;;;;;;9.63;3.33;;;23.90;99.90;;;;;;4186128;28;20722;-87
2023/10/09 12:14:00;;;;;;;6.90;3.58;;;23.90;99.90;;;;;;4184622;28;20176;-87
2023/10/09 12:16:07;;;;;;;9.55;3.42;;;23.90;99.90;;;;;;4184739;28;20544;-89
2023/10/09 12:18:18;;;;;;;9.38;3.72;;;23.80;99.90;;;;;;4217514;28;20173;-88
2023/10/09 12:20:32;;;;;;;7.50;3.53;;;23.90;99.90;;;;;;4205121;28;20210;-89
2023/10/09 12:22:33;;;;;;;7.07;3.63;;;23.80;99.90;;;;;;4205515;28;20178;-95
2023/10/09 12:24:34;;;;;;;7.32;3.28;;;23.80;99.90;;;;;;4203049;28;20246;-87
2023/10/09 12:26:35;;;;;;;10.40;3.92;;;23.90;99.90;;;;;;4219944;28;20232;-88
2023/10/09 12:28:35;;;;;;;6.43;3.25;;;23.80;99.90;;;;;;4202472;28;20194;-95
2023/10/09 12:30:39;;;;;;;7.18;2.92;;;23.80;99.90;;;;;;4201846;28;20190;-87
2023/10/09 12:32:40;;;;;;;7.38;3.30;;;24.00;99.90;;;;;;4186969;28;20740;-91
2023/10/09 12:34:42;;;;;;;7.55;3.58;;;24.00;99.90;;;;;;4185065;28;20159;-95
2023/10/09 12:36:45;;;;;;;7.65;3.03;;;23.90;99.90;;;;;;4200992;28;20195;-88
2023/10/09 12:38:52;;;;;;;10.55;3.65;;;24.10;99.90;;;;;;4185469;28;20256;-87
2023/10/09 12:41:18;;;;;;;8.07;3.33;;;24.20;99.90;;;;;;4201120;28;20250;-87
2023/10/09 12:43:21;;;;;;;7.25;3.67;;;24.30;99.90;;;;;;4184076;28;20532;-95
2023/10/09 12:45:26;;;;;;;7.18;3.53;;;24.50;99.90;;;;;;4202549;28;20178;-87
2023/10/09 12:47:26;;;;;;;7.68;3.95;;;24.60;99.90;;;;;;4202185;28;20163;-94
2023/10/09 12:49:27;;;;;;;10.18;3.33;;;24.60;99.90;;;;;;4185954;28;20207;-87